sensor_id;sensor_type;location;lat;lon;timestamp;P1;durP1;ratioP1;P2;durP2;ratioP2
26858;SDS011;14429;48.346;16.338;2022-07-04T00:01:28;3.22;;;2.10;;
26858;SDS011;14429;48.346;16.338;2022-07-04T00:03:54;2.92;;;2.08;;
26858;SDS011;14429;48.346;16.338;2022-07-04T00:06:20;2.08;;;1.73;;
26858;SDS011;14429;48.346;16.338;2022-07-04T00:08:45;2.30;;;2.10;;
26858;SDS011;14429;48.346;16.338;2022-07-04T00:11:11;2.20;;;1.95;;
26858;SDS011;14429;48.346;16.338;2022-07-04T00:13:36;2.08;;;1.75;;
26858;SDS011;14429;48.346;16.338;2022-07-04T00:16:02;2.40;;;2.10;;
26858;SDS011;14429;48.346;16.338;2022-07-04T00:18:27;2.17;;;1.98;;
26858;SDS011;14429;48.346;16.338;2022-07-04T00:20:54;2.45;;;2.17;;
26858;SDS011;14429;48.346;16.338;2022-07-04T00:23:20;2.30;;;2.10;;
26858;SDS011;14429;48.346;16.338;2022-07-04T00:25:45;2.03;;;1.83;;
26858;SDS011;14429;48.346;16.338;2022-07-04T00:28:11;2.38;;;2.15;;
26858;SDS011;14429;48.346;16.338;2022-07-04T00:30:36;2.50;;;2.00;;
26858;SDS011;14429;48.346;16.338;2022-07-04T00:33:02;2.55;;;2.25;;
26858;SDS011;14429;48.346;16.338;2022-07-04T00:35:27;2.35;;;2.15;;
26858;SDS011;14429;48.346;16.338;2022-07-04T00:37:54;2.33;;;1.90;;
26858;SDS011;14429;48.346;16.338;2022-07-04T00:40:19;3.47;;;1.77;;
26858;SDS011;14429;48.346;16.338;2022-07-04T00:42:45;3.65;;;2.50;;
26858;SDS011;14429;48.346;16.338;2022-07-04T00:45:10;2.67;;;2.25;;
26858;SDS011;14429;48.346;16.338;2022-07-04T00:47:36;4.50;;;2.20;;
26858;SDS011;14429;48.346;16.338;2022-07-04T00:50:01;2.28;;;2.08;;
26858;SDS011;14429;48.346;16.338;2022-07-04T00:52:27;2.33;;;2.10;;
26858;SDS011;14429;48.346;16.338;2022-07-04T00:54:54;1.63;;;1.52;;
26858;SDS011;14429;48.346;16.338;2022-07-04T00:57:20;2.47;;;2.10;;
26858;SDS011;14429;48.346;16.338;2022-07-04T00:59:45;2.58;;;1.92;;
26858;SDS011;14429;48.346;16.338;2022-07-04T01:02:11;3.03;;;2.50;;
26858;SDS011;14429;48.346;16.338;2022-07-04T01:04:36;1.90;;;1.70;;
26858;SDS011;14429;48.346;16.338;2022-07-04T01:07:02;2.30;;;2.10;;
26858;SDS011;14429;48.346;16.338;2022-07-04T01:09:29;2.15;;;1.92;;
26858;SDS011;14429;48.346;16.338;2022-07-04T01:11:55;2.80;;;2.22;;
26858;SDS011;14429;48.346;16.338;2022-07-04T01:14:21;2.22;;;2.00;;
26858;SDS011;14429;48.346;16.338;2022-07-04T01:16:46;2.63;;;2.15;;
26858;SDS011;14429;48.346;16.338;2022-07-04T01:19:12;2.40;;;2.03;;
26858;SDS011;14429;48.346;16.338;2022-07-04T01:21:39;2.25;;;2.00;;
26858;SDS011;14429;48.346;16.338;2022-07-04T01:24:04;2.53;;;2.28;;
26858;SDS011;14429;48.346;16.338;2022-07-04T01:26:30;2.35;;;1.95;;
26858;SDS011;14429;48.346;16.338;2022-07-04T01:28:55;2.33;;;2.13;;
26858;SDS011;14429;48.346;16.338;2022-07-04T01:31:21;3.13;;;2.33;;
26858;SDS011;14429;48.346;16.338;2022-07-04T01:33:46;2.63;;;2.22;;
26858;SDS011;14429;48.346;16.338;2022-07-04T01:36:12;2.08;;;1.88;;
26858;SDS011;14429;48.346;16.338;2022-07-04T01:38:39;2.60;;;2.28;;
26858;SDS011;14429;48.346;16.338;2022-07-04T01:41:04;3.55;;;2.50;;
26858;SDS011;14429;48.346;16.338;2022-07-04T01:43:30;2.33;;;2.13;;
26858;SDS011;14429;48.346;16.338;2022-07-04T01:45:55;2.67;;;2.15;;
26858;SDS011;14429;48.346;16.338;2022-07-04T01:48:21;3.75;;;2.03;;
26858;SDS011;14429;48.346;16.338;2022-07-04T01:50:46;2.38;;;2.17;;
26858;SDS011;14429;48.346;16.338;2022-07-04T01:53:12;2.55;;;1.80;;
26858;SDS011;14429;48.346;16.338;2022-07-04T01:55:38;2.60;;;2.40;;
26858;SDS011;14429;48.346;16.338;2022-07-04T01:58:04;2.80;;;2.33;;
26858;SDS011;14429;48.346;16.338;2022-07-04T02:00:29;2.20;;;1.92;;
26858;SDS011;14429;48.346;16.338;2022-07-04T02:02:55;2.70;;;1.90;;
26858;SDS011;14429;48.346;16.338;2022-07-04T02:05:21;2.15;;;1.88;;
26858;SDS011;14429;48.346;16.338;2022-07-04T02:07:46;2.00;;;1.80;;
26858;SDS011;14429;48.346;16.338;2022-07-04T02:10:12;2.00;;;1.70;;
26858;SDS011;14429;48.346;16.338;2022-07-04T02:12:38;4.82;;;1.80;;
26858;SDS011;14429;48.346;16.338;2022-07-04T02:15:05;2.03;;;1.80;;
26858;SDS011;14429;48.346;16.338;2022-07-04T02:17:31;2.25;;;2.05;;
26858;SDS011;14429;48.346;16.338;2022-07-04T02:19:57;2.53;;;1.90;;
26858;SDS011;14429;48.346;16.338;2022-07-04T02:22:22;2.22;;;1.77;;
26858;SDS011;14429;48.346;16.338;2022-07-04T02:24:48;2.53;;;2.30;;
26858;SDS011;14429;48.346;16.338;2022-07-04T02:27:13;3.53;;;2.60;;
26858;SDS011;14429;48.346;16.338;2022-07-04T02:29:40;2.40;;;2.08;;
26858;SDS011;14429;48.346;16.338;2022-07-04T02:32:06;2.70;;;2.20;;
26858;SDS011;14429;48.346;16.338;2022-07-04T02:34:32;2.97;;;2.30;;
26858;SDS011;14429;48.346;16.338;2022-07-04T02:36:58;2.17;;;1.95;;
26858;SDS011;14429;48.346;16.338;2022-07-04T02:39:23;2.60;;;2.13;;
26858;SDS011;14429;48.346;16.338;2022-07-04T02:41:48;2.30;;;2.10;;
26858;SDS011;14429;48.346;16.338;2022-07-04T02:44:14;2.42;;;2.00;;
26858;SDS011;14429;48.346;16.338;2022-07-04T02:46:41;1.85;;;1.73;;
26858;SDS011;14429;48.346;16.338;2022-07-04T02:49:06;3.33;;;2.17;;
26858;SDS011;14429;48.346;16.338;2022-07-04T02:51:32;2.47;;;2.15;;
26858;SDS011;14429;48.346;16.338;2022-07-04T02:53:58;2.22;;;1.95;;
26858;SDS011;14429;48.346;16.338;2022-07-04T02:56:23;2.08;;;1.88;;
26858;SDS011;14429;48.346;16.338;2022-07-04T02:58:49;2.10;;;1.90;;
26858;SDS011;14429;48.346;16.338;2022-07-04T03:01:14;2.70;;;2.00;;
26858;SDS011;14429;48.346;16.338;2022-07-04T03:03:41;2.00;;;1.80;;
26858;SDS011;14429;48.346;16.338;2022-07-04T03:06:07;2.17;;;1.95;;
26858;SDS011;14429;48.346;16.338;2022-07-04T03:08:33;2.25;;;1.70;;
26858;SDS011;14429;48.346;16.338;2022-07-04T03:10:58;1.95;;;1.77;;
26858;SDS011;14429;48.346;16.338;2022-07-04T03:13:24;2.97;;;1.95;;
26858;SDS011;14429;48.346;16.338;2022-07-04T03:15:49;2.83;;;2.10;;
26858;SDS011;14429;48.346;16.338;2022-07-04T03:18:15;3.17;;;1.98;;
26858;SDS011;14429;48.346;16.338;2022-07-04T03:20:42;2.53;;;2.10;;
26858;SDS011;14429;48.346;16.338;2022-07-04T03:23:08;2.10;;;1.90;;
26858;SDS011;14429;48.346;16.338;2022-07-04T03:25:33;3.00;;;2.15;;
26858;SDS011;14429;48.346;16.338;2022-07-04T03:27:59;2.47;;;1.98;;
26858;SDS011;14429;48.346;16.338;2022-07-04T03:30:24;2.30;;;2.00;;
26858;SDS011;14429;48.346;16.338;2022-07-04T03:32:49;2.30;;;1.73;;
26858;SDS011;14429;48.346;16.338;2022-07-04T03:35:15;3.53;;;2.25;;
26858;SDS011;14429;48.346;16.338;2022-07-04T03:37:42;2.50;;;2.10;;
26858;SDS011;14429;48.346;16.338;2022-07-04T03:40:08;2.80;;;2.25;;
26858;SDS011;14429;48.346;16.338;2022-07-04T03:42:35;2.92;;;1.98;;
26858;SDS011;14429;48.346;16.338;2022-07-04T03:45:01;2.53;;;2.08;;
26858;SDS011;14429;48.346;16.338;2022-07-04T03:47:26;2.15;;;1.95;;
26858;SDS011;14429;48.346;16.338;2022-07-04T03:49:52;2.22;;;1.83;;
26858;SDS011;14429;48.346;16.338;2022-07-04T03:52:17;2.28;;;2.08;;
26858;SDS011;14429;48.346;16.338;2022-07-04T03:54:44;2.50;;;2.00;;
26858;SDS011;14429;48.346;16.338;2022-07-04T03:57:09;3.50;;;1.95;;
26858;SDS011;14429;48.346;16.338;2022-07-04T03:59:35;2.65;;;2.13;;
26858;SDS011;14429;48.346;16.338;2022-07-04T04:02:00;2.63;;;2.38;;
26858;SDS011;14429;48.346;16.338;2022-07-04T04:04:26;2.95;;;2.22;;
26858;SDS011;14429;48.346;16.338;2022-07-04T04:06:51;1.77;;;1.55;;
26858;SDS011;14429;48.346;16.338;2022-07-04T04:09:17;3.13;;;2.35;;
26858;SDS011;14429;48.346;16.338;2022-07-04T04:11:43;2.30;;;1.75;;
26858;SDS011;14429;48.346;16.338;2022-07-04T04:14:09;2.78;;;2.38;;
26858;SDS011;14429;48.346;16.338;2022-07-04T04:16:34;2.70;;;2.10;;
26858;SDS011;14429;48.346;16.338;2022-07-04T04:19:00;3.22;;;2.70;;
26858;SDS011;14429;48.346;16.338;2022-07-04T04:21:25;2.90;;;2.42;;
26858;SDS011;14429;48.346;16.338;2022-07-04T04:23:51;2.63;;;2.00;;
26858;SDS011;14429;48.346;16.338;2022-07-04T04:26:16;6.15;;;2.42;;
26858;SDS011;14429;48.346;16.338;2022-07-04T04:28:43;2.65;;;2.13;;
26858;SDS011;14429;48.346;16.338;2022-07-04T04:31:08;3.38;;;2.88;;
26858;SDS011;14429;48.346;16.338;2022-07-04T04:33:34;6.32;;;2.60;;
26858;SDS011;14429;48.346;16.338;2022-07-04T04:36:00;2.75;;;2.38;;
26858;SDS011;14429;48.346;16.338;2022-07-04T04:38:25;3.70;;;2.63;;
26858;SDS011;14429;48.346;16.338;2022-07-04T04:40:50;3.00;;;2.20;;
26858;SDS011;14429;48.346;16.338;2022-07-04T04:43:16;4.28;;;2.65;;
26858;SDS011;14429;48.346;16.338;2022-07-04T04:45:43;4.68;;;2.55;;
26858;SDS011;14429;48.346;16.338;2022-07-04T04:48:08;3.50;;;2.60;;
26858;SDS011;14429;48.346;16.338;2022-07-04T04:50:34;5.57;;;2.03;;
26858;SDS011;14429;48.346;16.338;2022-07-04T04:52:59;2.78;;;2.08;;
26858;SDS011;14429;48.346;16.338;2022-07-04T04:55:25;3.78;;;2.60;;
26858;SDS011;14429;48.346;16.338;2022-07-04T04:57:51;3.17;;;2.47;;
26858;SDS011;14429;48.346;16.338;2022-07-04T05:00:16;3.33;;;2.20;;
26858;SDS011;14429;48.346;16.338;2022-07-04T05:02:43;3.42;;;2.45;;
26858;SDS011;14429;48.346;16.338;2022-07-04T05:05:09;3.28;;;2.47;;
26858;SDS011;14429;48.346;16.338;2022-07-04T05:07:34;3.45;;;2.38;;
26858;SDS011;14429;48.346;16.338;2022-07-04T05:10:00;4.90;;;2.42;;
26858;SDS011;14429;48.346;16.338;2022-07-04T05:12:25;2.55;;;1.90;;
26858;SDS011;14429;48.346;16.338;2022-07-04T05:14:51;3.05;;;2.13;;
26858;SDS011;14429;48.346;16.338;2022-07-04T05:17:17;5.40;;;2.38;;
26858;SDS011;14429;48.346;16.338;2022-07-04T05:19:44;1.95;;;1.75;;
26858;SDS011;14429;48.346;16.338;2022-07-04T05:22:17;2.38;;;2.15;;
26858;SDS011;14429;48.346;16.338;2022-07-04T05:24:43;1.83;;;1.70;;
26858;SDS011;14429;48.346;16.338;2022-07-04T05:27:15;2.40;;;1.90;;
26858;SDS011;14429;48.346;16.338;2022-07-04T05:29:40;2.67;;;1.90;;
26858;SDS011;14429;48.346;16.338;2022-07-04T05:32:06;2.03;;;1.70;;
26858;SDS011;14429;48.346;16.338;2022-07-04T05:34:32;3.25;;;2.22;;
26858;SDS011;14429;48.346;16.338;2022-07-04T05:36:59;4.88;;;2.03;;
26858;SDS011;14429;48.346;16.338;2022-07-04T05:39:24;2.38;;;2.15;;
26858;SDS011;14429;48.346;16.338;2022-07-04T05:41:50;2.20;;;2.00;;
26858;SDS011;14429;48.346;16.338;2022-07-04T05:44:15;2.42;;;1.90;;
26858;SDS011;14429;48.346;16.338;2022-07-04T05:46:41;2.65;;;1.95;;
26858;SDS011;14429;48.346;16.338;2022-07-04T05:49:06;2.30;;;2.10;;
26858;SDS011;14429;48.346;16.338;2022-07-04T05:51:32;2.10;;;1.90;;
26858;SDS011;14429;48.346;16.338;2022-07-04T05:53:58;3.15;;;2.13;;
26858;SDS011;14429;48.346;16.338;2022-07-04T05:56:24;4.15;;;2.10;;
26858;SDS011;14429;48.346;16.338;2022-07-04T05:58:49;2.67;;;2.00;;
26858;SDS011;14429;48.346;16.338;2022-07-04T06:01:15;2.45;;;1.92;;
26858;SDS011;14429;48.346;16.338;2022-07-04T06:03:40;2.38;;;1.88;;
26858;SDS011;14429;48.346;16.338;2022-07-04T06:06:06;2.70;;;2.10;;
26858;SDS011;14429;48.346;16.338;2022-07-04T06:08:31;2.33;;;1.92;;
26858;SDS011;14429;48.346;16.338;2022-07-04T06:10:58;3.78;;;1.90;;
26858;SDS011;14429;48.346;16.338;2022-07-04T06:13:24;2.05;;;1.85;;
26858;SDS011;14429;48.346;16.338;2022-07-04T06:15:49;5.15;;;1.85;;
26858;SDS011;14429;48.346;16.338;2022-07-04T06:18:15;2.17;;;1.98;;
26858;SDS011;14429;48.346;16.338;2022-07-04T06:20:41;2.28;;;1.98;;
26858;SDS011;14429;48.346;16.338;2022-07-04T06:23:07;1.92;;;1.58;;
26858;SDS011;14429;48.346;16.338;2022-07-04T06:25:32;3.00;;;2.00;;
26858;SDS011;14429;48.346;16.338;2022-07-04T06:28:00;2.25;;;1.83;;
26858;SDS011;14429;48.346;16.338;2022-07-04T06:30:26;2.05;;;1.85;;
26858;SDS011;14429;48.346;16.338;2022-07-04T06:32:53;2.33;;;1.90;;
26858;SDS011;14429;48.346;16.338;2022-07-04T06:35:20;2.72;;;1.80;;
26858;SDS011;14429;48.346;16.338;2022-07-04T06:37:47;1.83;;;1.70;;
26858;SDS011;14429;48.346;16.338;2022-07-04T06:40:12;2.35;;;2.15;;
26858;SDS011;14429;48.346;16.338;2022-07-04T06:42:38;1.98;;;1.73;;
26858;SDS011;14429;48.346;16.338;2022-07-04T06:45:05;2.47;;;1.92;;
26858;SDS011;14429;48.346;16.338;2022-07-04T06:47:31;2.10;;;1.70;;
26858;SDS011;14429;48.346;16.338;2022-07-04T06:49:56;3.00;;;2.00;;
26858;SDS011;14429;48.346;16.338;2022-07-04T06:52:22;3.42;;;1.90;;
26858;SDS011;14429;48.346;16.338;2022-07-04T06:54:47;3.92;;;2.15;;
26858;SDS011;14429;48.346;16.338;2022-07-04T06:57:13;2.95;;;2.17;;
26858;SDS011;14429;48.346;16.338;2022-07-04T06:59:38;2.17;;;1.98;;
26858;SDS011;14429;48.346;16.338;2022-07-04T07:02:05;2.88;;;2.15;;
26858;SDS011;14429;48.346;16.338;2022-07-04T07:04:31;2.45;;;1.90;;
26858;SDS011;14429;48.346;16.338;2022-07-04T07:06:56;1.65;;;1.55;;
26858;SDS011;14429;48.346;16.338;2022-07-04T07:09:22;3.50;;;2.00;;
26858;SDS011;14429;48.346;16.338;2022-07-04T07:11:47;2.45;;;1.85;;
26858;SDS011;14429;48.346;16.338;2022-07-04T07:14:13;3.70;;;1.77;;
26858;SDS011;14429;48.346;16.338;2022-07-04T07:16:38;2.17;;;1.92;;
26858;SDS011;14429;48.346;16.338;2022-07-04T07:19:05;1.55;;;1.45;;
26858;SDS011;14429;48.346;16.338;2022-07-04T07:21:30;2.13;;;1.92;;
26858;SDS011;14429;48.346;16.338;2022-07-04T07:23:56;2.17;;;1.98;;
26858;SDS011;14429;48.346;16.338;2022-07-04T07:26:21;3.28;;;2.03;;
26858;SDS011;14429;48.346;16.338;2022-07-04T07:28:47;3.05;;;2.10;;
26858;SDS011;14429;48.346;16.338;2022-07-04T07:31:13;3.75;;;2.30;;
26858;SDS011;14429;48.346;16.338;2022-07-04T07:33:38;2.08;;;1.88;;
26858;SDS011;14429;48.346;16.338;2022-07-04T07:36:05;4.50;;;1.98;;
26858;SDS011;14429;48.346;16.338;2022-07-04T07:38:31;2.40;;;1.85;;
26858;SDS011;14429;48.346;16.338;2022-07-04T07:40:56;5.25;;;2.03;;
26858;SDS011;14429;48.346;16.338;2022-07-04T07:43:21;2.55;;;2.08;;
26858;SDS011;14429;48.346;16.338;2022-07-04T07:45:47;3.70;;;2.33;;
26858;SDS011;14429;48.346;16.338;2022-07-04T07:48:12;2.83;;;2.15;;
26858;SDS011;14429;48.346;16.338;2022-07-04T07:50:38;2.50;;;2.10;;
26858;SDS011;14429;48.346;16.338;2022-07-04T07:53:05;2.58;;;2.03;;
26858;SDS011;14429;48.346;16.338;2022-07-04T07:55:30;2.28;;;2.05;;
26858;SDS011;14429;48.346;16.338;2022-07-04T07:57:56;2.30;;;2.00;;
26858;SDS011;14429;48.346;16.338;2022-07-04T08:00:21;5.80;;;2.17;;
26858;SDS011;14429;48.346;16.338;2022-07-04T08:02:47;2.53;;;2.15;;
26858;SDS011;14429;48.346;16.338;2022-07-04T08:05:12;2.28;;;1.90;;
26858;SDS011;14429;48.346;16.338;2022-07-04T08:07:38;2.60;;;2.03;;
26858;SDS011;14429;48.346;16.338;2022-07-04T08:10:05;2.42;;;2.17;;
26858;SDS011;14429;48.346;16.338;2022-07-04T08:12:32;2.55;;;1.80;;
26858;SDS011;14429;48.346;16.338;2022-07-04T08:14:57;2.10;;;1.90;;
26858;SDS011;14429;48.346;16.338;2022-07-04T08:17:23;2.13;;;1.83;;
26858;SDS011;14429;48.346;16.338;2022-07-04T08:19:48;2.50;;;1.98;;
26858;SDS011;14429;48.346;16.338;2022-07-04T08:22:14;4.47;;;2.30;;
26858;SDS011;14429;48.346;16.338;2022-07-04T08:24:39;2.53;;;1.85;;
26858;SDS011;14429;48.346;16.338;2022-07-04T08:27:06;3.15;;;1.95;;
26858;SDS011;14429;48.346;16.338;2022-07-04T08:29:32;3.83;;;1.73;;
26858;SDS011;14429;48.346;16.338;2022-07-04T08:31:57;4.35;;;1.65;;
26858;SDS011;14429;48.346;16.338;2022-07-04T08:34:23;2.40;;;2.00;;
26858;SDS011;14429;48.346;16.338;2022-07-04T08:36:48;2.10;;;1.90;;
26858;SDS011;14429;48.346;16.338;2022-07-04T08:39:14;4.95;;;2.25;;
26858;SDS011;14429;48.346;16.338;2022-07-04T08:41:40;3.13;;;2.13;;
26858;SDS011;14429;48.346;16.338;2022-07-04T08:44:08;3.05;;;2.30;;
26858;SDS011;14429;48.346;16.338;2022-07-04T08:46:34;6.50;;;2.30;;
26858;SDS011;14429;48.346;16.338;2022-07-04T08:49:02;4.40;;;2.10;;
26858;SDS011;14429;48.346;16.338;2022-07-04T08:51:34;2.97;;;2.22;;
26858;SDS011;14429;48.346;16.338;2022-07-04T08:54:08;3.50;;;1.92;;
26858;SDS011;14429;48.346;16.338;2022-07-04T08:56:35;2.97;;;2.17;;
26858;SDS011;14429;48.346;16.338;2022-07-04T08:59:01;2.20;;;1.70;;
26858;SDS011;14429;48.346;16.338;2022-07-04T09:01:28;2.75;;;1.75;;
26858;SDS011;14429;48.346;16.338;2022-07-04T09:03:54;2.60;;;1.80;;
26858;SDS011;14429;48.346;16.338;2022-07-04T09:06:20;1.67;;;1.55;;
26858;SDS011;14429;48.346;16.338;2022-07-04T09:08:47;2.67;;;1.85;;
26858;SDS011;14429;48.346;16.338;2022-07-04T09:11:12;2.78;;;1.77;;
26858;SDS011;14429;48.346;16.338;2022-07-04T09:13:37;2.38;;;1.88;;
26858;SDS011;14429;48.346;16.338;2022-07-04T09:16:03;2.05;;;1.70;;
26858;SDS011;14429;48.346;16.338;2022-07-04T09:18:31;2.20;;;1.83;;
26858;SDS011;14429;48.346;16.338;2022-07-04T09:20:58;1.60;;;1.50;;
26858;SDS011;14429;48.346;16.338;2022-07-04T09:23:25;5.95;;;2.03;;
26858;SDS011;14429;48.346;16.338;2022-07-04T09:26:05;2.10;;;1.63;;
26858;SDS011;14429;48.346;16.338;2022-07-04T09:28:32;2.25;;;1.65;;
26858;SDS011;14429;48.346;16.338;2022-07-04T09:30:58;1.85;;;1.67;;
26858;SDS011;14429;48.346;16.338;2022-07-04T09:33:23;2.15;;;1.63;;
26858;SDS011;14429;48.346;16.338;2022-07-04T09:36:11;2.45;;;1.42;;
26858;SDS011;14429;48.346;16.338;2022-07-04T09:38:37;7.22;;;2.38;;
26858;SDS011;14429;48.346;16.338;2022-07-04T09:41:02;3.28;;;1.75;;
26858;SDS011;14429;48.346;16.338;2022-07-04T09:43:28;1.60;;;1.38;;
26858;SDS011;14429;48.346;16.338;2022-07-04T09:45:54;2.13;;;1.48;;
26858;SDS011;14429;48.346;16.338;2022-07-04T09:48:20;3.42;;;1.85;;
26858;SDS011;14429;48.346;16.338;2022-07-04T09:50:47;4.88;;;1.55;;
26858;SDS011;14429;48.346;16.338;2022-07-04T09:53:13;1.67;;;1.58;;
26858;SDS011;14429;48.346;16.338;2022-07-04T09:55:38;1.58;;;1.45;;
26858;SDS011;14429;48.346;16.338;2022-07-04T09:58:04;3.13;;;1.50;;
26858;SDS011;14429;48.346;16.338;2022-07-04T10:00:31;3.22;;;1.52;;
26858;SDS011;14429;48.346;16.338;2022-07-04T10:03:15;1.80;;;1.70;;
26858;SDS011;14429;48.346;16.338;2022-07-04T10:05:42;1.67;;;1.40;;
26858;SDS011;14429;48.346;16.338;2022-07-04T10:08:09;3.38;;;1.60;;
26858;SDS011;14429;48.346;16.338;2022-07-04T10:10:35;2.35;;;1.63;;
26858;SDS011;14429;48.346;16.338;2022-07-04T10:13:03;3.67;;;1.33;;
26858;SDS011;14429;48.346;16.338;2022-07-04T10:15:30;2.53;;;1.48;;
26858;SDS011;14429;48.346;16.338;2022-07-04T10:17:56;1.58;;;1.42;;
26858;SDS011;14429;48.346;16.338;2022-07-04T10:20:21;1.92;;;1.77;;
26858;SDS011;14429;48.346;16.338;2022-07-04T10:22:47;2.83;;;1.98;;
26858;SDS011;14429;48.346;16.338;2022-07-04T10:25:14;1.40;;;1.30;;
26858;SDS011;14429;48.346;16.338;2022-07-04T10:27:40;1.50;;;1.40;;
26858;SDS011;14429;48.346;16.338;2022-07-04T10:30:06;1.83;;;1.63;;
26858;SDS011;14429;48.346;16.338;2022-07-04T10:32:34;2.60;;;1.70;;
26858;SDS011;14429;48.346;16.338;2022-07-04T10:35:01;5.28;;;1.88;;
26858;SDS011;14429;48.346;16.338;2022-07-04T10:46:22;1.60;;;1.50;;
26858;SDS011;14429;48.346;16.338;2022-07-04T10:48:52;1.35;;;1.25;;
26858;SDS011;14429;48.346;16.338;2022-07-04T10:51:31;3.30;;;1.38;;
26858;SDS011;14429;48.346;16.338;2022-07-04T10:53:59;1.73;;;1.48;;
26858;SDS011;14429;48.346;16.338;2022-07-04T10:56:34;2.13;;;1.63;;
26858;SDS011;14429;48.346;16.338;2022-07-04T10:59:02;1.88;;;1.45;;
26858;SDS011;14429;48.346;16.338;2022-07-04T11:01:32;1.73;;;1.40;;
26858;SDS011;14429;48.346;16.338;2022-07-04T11:03:57;1.50;;;1.30;;
26858;SDS011;14429;48.346;16.338;2022-07-04T11:09:16;1.50;;;1.40;;
26858;SDS011;14429;48.346;16.338;2022-07-04T11:11:54;1.60;;;1.50;;
26858;SDS011;14429;48.346;16.338;2022-07-04T11:17:11;5.72;;;1.45;;
26858;SDS011;14429;48.346;16.338;2022-07-04T11:19:37;1.70;;;1.60;;
26858;SDS011;14429;48.346;16.338;2022-07-04T11:22:04;2.17;;;1.98;;
26858;SDS011;14429;48.346;16.338;2022-07-04T11:24:31;1.75;;;1.40;;
26858;SDS011;14429;48.346;16.338;2022-07-04T11:26:58;1.88;;;1.40;;
26858;SDS011;14429;48.346;16.338;2022-07-04T11:29:24;2.97;;;1.52;;
26858;SDS011;14429;48.346;16.338;2022-07-04T11:31:50;2.15;;;1.48;;
26858;SDS011;14429;48.346;16.338;2022-07-04T11:34:17;1.73;;;1.40;;
26858;SDS011;14429;48.346;16.338;2022-07-04T11:36:42;2.47;;;1.50;;
26858;SDS011;14429;48.346;16.338;2022-07-04T11:39:10;2.17;;;1.60;;
26858;SDS011;14429;48.346;16.338;2022-07-04T11:41:37;2.38;;;1.40;;
26858;SDS011;14429;48.346;16.338;2022-07-04T11:44:05;1.50;;;1.40;;
26858;SDS011;14429;48.346;16.338;2022-07-04T11:46:32;5.85;;;2.08;;
26858;SDS011;14429;48.346;16.338;2022-07-04T11:49:06;1.73;;;1.48;;
26858;SDS011;14429;48.346;16.338;2022-07-04T11:51:32;1.83;;;1.70;;
26858;SDS011;14429;48.346;16.338;2022-07-04T11:54:02;2.45;;;1.48;;
26858;SDS011;14429;48.346;16.338;2022-07-04T11:56:28;1.80;;;1.13;;
26858;SDS011;14429;48.346;16.338;2022-07-04T11:58:54;5.72;;;1.45;;
26858;SDS011;14429;48.346;16.338;2022-07-04T12:01:27;2.30;;;1.27;;
26858;SDS011;14429;48.346;16.338;2022-07-04T12:03:53;5.27;;;1.50;;
26858;SDS011;14429;48.346;16.338;2022-07-04T12:06:18;1.90;;;1.67;;
26858;SDS011;14429;48.346;16.338;2022-07-04T12:08:44;3.53;;;1.50;;
26858;SDS011;14429;48.346;16.338;2022-07-04T12:11:09;1.52;;;1.25;;
26858;SDS011;14429;48.346;16.338;2022-07-04T12:13:34;1.38;;;1.27;;
26858;SDS011;14429;48.346;16.338;2022-07-04T12:16:00;2.83;;;1.58;;
26858;SDS011;14429;48.346;16.338;2022-07-04T12:18:27;2.50;;;1.40;;
26858;SDS011;14429;48.346;16.338;2022-07-04T12:20:54;2.28;;;1.52;;
26858;SDS011;14429;48.346;16.338;2022-07-04T12:23:35;3.42;;;1.40;;
26858;SDS011;14429;48.346;16.338;2022-07-04T12:26:00;1.30;;;1.20;;
26858;SDS011;14429;48.346;16.338;2022-07-04T12:28:33;2.15;;;1.70;;
26858;SDS011;14429;48.346;16.338;2022-07-04T12:31:00;1.35;;;1.25;;
26858;SDS011;14429;48.346;16.338;2022-07-04T12:33:27;2.80;;;1.63;;
26858;SDS011;14429;48.346;16.338;2022-07-04T12:35:55;1.63;;;1.52;;
26858;SDS011;14429;48.346;16.338;2022-07-04T12:38:22;1.77;;;1.67;;
26858;SDS011;14429;48.346;16.338;2022-07-04T12:40:58;1.85;;;1.42;;
26858;SDS011;14429;48.346;16.338;2022-07-04T12:43:26;1.48;;;1.38;;
26858;SDS011;14429;48.346;16.338;2022-07-04T12:46:10;1.45;;;1.27;;
26858;SDS011;14429;48.346;16.338;2022-07-04T12:48:38;3.08;;;1.50;;
26858;SDS011;14429;48.346;16.338;2022-07-04T12:51:08;2.88;;;1.40;;
26858;SDS011;14429;48.346;16.338;2022-07-04T12:53:36;2.53;;;1.48;;
26858;SDS011;14429;48.346;16.338;2022-07-04T12:56:02;1.48;;;1.27;;
26858;SDS011;14429;48.346;16.338;2022-07-04T12:58:27;2.13;;;1.92;;
26858;SDS011;14429;48.346;16.338;2022-07-04T13:00:53;1.30;;;1.15;;
26858;SDS011;14429;48.346;16.338;2022-07-04T13:03:18;1.52;;;1.42;;
26858;SDS011;14429;48.346;16.338;2022-07-04T13:05:45;1.38;;;1.27;;
26858;SDS011;14429;48.346;16.338;2022-07-04T13:08:10;1.65;;;1.40;;
26858;SDS011;14429;48.346;16.338;2022-07-04T13:10:36;1.83;;;1.58;;
26858;SDS011;14429;48.346;16.338;2022-07-04T13:13:01;3.67;;;1.40;;
26858;SDS011;14429;48.346;16.338;2022-07-04T13:15:27;1.67;;;1.48;;
26858;SDS011;14429;48.346;16.338;2022-07-04T13:17:53;1.88;;;1.70;;
26858;SDS011;14429;48.346;16.338;2022-07-04T13:20:19;2.03;;;1.63;;
26858;SDS011;14429;48.346;16.338;2022-07-04T13:22:46;4.30;;;1.50;;
26858;SDS011;14429;48.346;16.338;2022-07-04T13:25:12;1.25;;;1.10;;
26858;SDS011;14429;48.346;16.338;2022-07-04T13:27:37;1.83;;;1.40;;
26858;SDS011;14429;48.346;16.338;2022-07-04T13:30:03;1.50;;;1.30;;
26858;SDS011;14429;48.346;16.338;2022-07-04T13:32:29;2.08;;;1.77;;
26858;SDS011;14429;48.346;16.338;2022-07-04T13:34:54;1.85;;;1.52;;
26858;SDS011;14429;48.346;16.338;2022-07-04T13:37:20;1.38;;;1.20;;
26858;SDS011;14429;48.346;16.338;2022-07-04T13:39:47;1.25;;;1.10;;
26858;SDS011;14429;48.346;16.338;2022-07-04T13:42:13;1.48;;;1.35;;
26858;SDS011;14429;48.346;16.338;2022-07-04T13:44:38;1.83;;;1.17;;
26858;SDS011;14429;48.346;16.338;2022-07-04T13:47:04;2.03;;;1.50;;
26858;SDS011;14429;48.346;16.338;2022-07-04T13:49:30;2.10;;;1.80;;
26858;SDS011;14429;48.346;16.338;2022-07-04T13:51:55;2.25;;;1.13;;
26858;SDS011;14429;48.346;16.338;2022-07-04T13:54:20;2.28;;;1.70;;
26858;SDS011;14429;48.346;16.338;2022-07-04T13:56:47;1.33;;;1.23;;
26858;SDS011;14429;48.346;16.338;2022-07-04T13:59:13;4.03;;;1.35;;
26858;SDS011;14429;48.346;16.338;2022-07-04T14:01:38;4.07;;;1.70;;
26858;SDS011;14429;48.346;16.338;2022-07-04T14:04:04;2.47;;;1.30;;
26858;SDS011;14429;48.346;16.338;2022-07-04T14:06:29;2.78;;;1.73;;
26858;SDS011;14429;48.346;16.338;2022-07-04T14:08:55;2.47;;;1.70;;
26858;SDS011;14429;48.346;16.338;2022-07-04T14:11:20;2.13;;;1.92;;
26858;SDS011;14429;48.346;16.338;2022-07-04T14:13:47;1.58;;;1.40;;
26858;SDS011;14429;48.346;16.338;2022-07-04T14:16:12;1.52;;;1.42;;
26858;SDS011;14429;48.346;16.338;2022-07-04T14:18:39;1.83;;;1.50;;
26858;SDS011;14429;48.346;16.338;2022-07-04T14:21:04;2.05;;;1.67;;
26858;SDS011;14429;48.346;16.338;2022-07-04T14:23:30;1.50;;;1.40;;
26858;SDS011;14429;48.346;16.338;2022-07-04T14:25:55;1.40;;;1.13;;
26858;SDS011;14429;48.346;16.338;2022-07-04T14:28:21;2.72;;;1.65;;
26858;SDS011;14429;48.346;16.338;2022-07-04T14:30:47;1.48;;;1.27;;
26858;SDS011;14429;48.346;16.338;2022-07-04T14:33:20;1.85;;;1.30;;
26858;SDS011;14429;48.346;16.338;2022-07-04T14:35:45;1.58;;;1.48;;
26858;SDS011;14429;48.346;16.338;2022-07-04T14:38:11;2.25;;;1.60;;
26858;SDS011;14429;48.346;16.338;2022-07-04T14:40:36;1.85;;;1.38;;
26858;SDS011;14429;48.346;16.338;2022-07-04T14:43:02;1.48;;;1.38;;